TERMINUS DAM (TRM)

Elevation: 752' · KAWEAH R basin · Operator: US Army Corps of Engineers

Provisional data, subject to change.
Query executed Monday at 20:33:31   clock

Select a sensor type for a plot of data.
Note: Reservoir Flows are daily averages.

Earlier

Date RES ELE    STORAGE    RES CHG    TOC STO    ABV TOC    OUTFLOW    INFLOW    FNF    PPT INC    TEMP MN    TEMP MX    WINDLEN    EVP PAN   
 FEET   AF   AF   AF   AF   CFS   CFS   CFS   INCHES   DEG F   DEG F   MILES   INCHES  
08/27/2016 587.13 13041 -10 185300 -171846 103 39 39 e 0.00 16 33 85 0.26
08/28/2016 586.83 12908 10 185300 -171836 103 39 39 e 0.00 21 34 97 0.28
08/29/2016 586.54 12775 -- 185300 -- 98 36 36 e 0.00 21 37 97 0.29
08/30/2016 586.24 12644 -- 185300 -172656 91 29 29 0.00 20 36 86 0.27
08/31/2016 585.93 12509 -- 182859 -- 88 24 30 e 0.00 21 36 89 0.28
09/01/2016 585.71 12409 -- 180418 -168009 88 41 41 0.00 18 35 81 0.26
09/02/2016 585.48 12313 -- 177977 -165664 88 44 44 0.00 17 36 84 0.27
09/03/2016 585.23 12203 -- 175537 -163334 88 37 37 0.00 20 33 88 0.26
09/04/2016 584.92 12070 -- 173096 -161026 88 25 25 0.00 15 30 85 0.24
09/05/2016 584.72 11985 -- 170655 -158670 88 49 49 0.00 15 32 91 0.25
09/06/2016 584.51 11895 -- 168214 -- 84 43 43 0.00 17 34 96 0.26
09/07/2016 584.30 11808 -- 165773 -153965 79 40 40 0.00 19 37 104 0.29
09/08/2016 584.08 11715 -- 163332 -151617 76 34 34 0.00 20 36 89 0.27
09/09/2016 583.94 11657 -- 160892 -- 67 41 41 0.00 20 36 86 0.26
09/10/2016 583.78 11590 -- 158451 -146861 59 29 29 0.00 22 38 98 0.29
09/11/2016 583.59 11516 -- 156010 -144494 65 31 31 0.01 22 36 95 0.27
09/12/2016 583.43 11448 -- 153569 -142120 63 32 32 0.00 17 34 77 0.24
09/13/2016 583.08 11307 -- 151128 -139821 93 24 24 0.00 12 25 71 0.19
09/14/2016 582.54 11088 -- 148687 -137599 135 28 28 0.00 13 28 103 0.23
09/15/2016 581.90 10834 -- 146246 -135412 149 25 25 0.00 15 30 84 0.23
09/16/2016 581.21 10567 -- 143806 -133239 151 20 20 0.00 17 34 93 0.25
09/17/2016 580.57 10326 -- 141365 -131039 150 32 32 0.00 18 36 101 0.26
09/18/2016 579.89 10071 -- 138924 -128853 149 24 24 0.00 19 39 95 0.28
09/19/2016 579.63 9975 -- 136483 -126508 93 49 49 0.01 21 40 105 0.29
09/20/2016 579.59 9960 -- 134042 -124083 27 22 22 0.00 21 36 84 0.24
09/21/2016 579.55 9947 -- 131601 -121654 24 20 20 0.00 20 32 95 0.22
09/22/2016 579.51 9932 -- 129161 -119229 25 21 -- 0.00 10 25 103 0.20
09/23/2016 579.45 9909 -- 126720 -116810 27 18 -- 0.00 12 29 88 0.21
09/24/2016 579.41 9895 -- 124279 -114384 27 23 -- 0.00 14 32 97 0.23
09/25/2016 579.38 9884 -- 121838 -111954 27 25 -- 0.00 16 37 101 0.26
09/26/2016 -- -- -- -- -- -- -- -- -- -- -- -- --

Later | Latest

Warning! This data is preliminary and subject to revision.

Show TRM Map | Plot TRM Data | 1 Month TRM Data | Real-Time TRM Data | TRM Info